Terminal Aerodrome Forecast
Issued by NWS

Current Version | Previous Version | Text Only | Print | Product List | Glossary On
Versions: 1 2 3 4 5 6 7 8 9 10 11 12 13
000
FTUS42 KMLB 200500
TAFSUA
TAF
KSUA 200528Z 2006/2106 VRB04KT P6SM FEW040 FEW250
     FM201400 13009KT P6SM FEW040 SCT250
     FM210100 16005KT P6SM SCT040 OVC250=

USA.gov is the U.S. government's official web portal to all federal, state and local government web resources and services.